Forney, TX (75126)

5:58 PM CDT on April 27, 2015 (GMT -0500)
Layden Farms Talty, TX | | Change Station
CLOSE
Current Station
Personal Weather Station
Location: Forney, TX
Elevation: 502 ft
Nearby Weather Stations

Elev 502 ft 32.70 °N, 96.40 °W | Updated 13 seconds ago

Overcast
Overcast
69.4 °F
Feels Like 69.4 °F
N
9.0
Wind Variable Wind from NE
Gusts 0.0 mph

Today
High -- | Low -- °F
--% Chance of Precip.
Yesterday
High -- | Low -- °F
Precip. -- in
6:42 AM 8:04 PM
Waxing Gibbous, 68% visible
Pressure 29.73 in
Visibility 10.0 miles
Clouds Overcast 3900 ft
Dew Point 60 °F
Humidity 73%
Rainfall 0.00 in
Snow Depth Not available.
UV 1 out of 12
Pollen 3.70 out of 12
Air Quality Not available.
Flu Activity Local Activity
METAR KHQZ 272250Z 05006KT 10SM OVC039 20/14 A2973

More Conditions Fewer Conditions

Pressure 29.73 in
Visibility 10.0 miles
Clouds Overcast 3900 ft
Dew Point 60 °F
Humidity 73%
Rainfall 0.00 in
Snow Depth Not available.
UV 1 out of 12
Pollen 3.70 out of 12
Air Quality Not available.
Flu Activity Local Activity
METAR KHQZ 272250Z 05006KT 10SM OVC039 20/14 A2973

More Conditions Fewer Conditions

Nowcast | as of 4:46 PM CDT on April 27, 2015

A band of showers and thunderstorms that extended from Bowie to just west of Fort Worth north of Hamilton at 435 PM....will continue to move east at 20 mph. Brief heavy rain...cloud to ground lightning...and gusty winds may accompany some of the storms. Elsewhere...skies will remain partly to mostly cloudy with temperatures slowly falling into the mid 50s north to the mid 60s south by 10 PM.

×

10-Day Weather Forecast

Almanac

Astronomy

Apr. 27, 2015 Rise Set
Actual Time
Civil Twilight
Nautical Twilight
Astronomical Twilight
Moon
Length of Visible Light
Length of Day
Tomorrow will be .
, % of the Moon is Illuminated

Today's Extremes

State Highs State Lows

Community

WunderPhotos

Upload Photos

1,817,442 photos uploaded!

WunderBlogs® & News

Nearby

Air Quality

  Air Quality AQ Index Pollutant
Not available.

Snow Depth

Station Depth Elevation

Earthquake Activity

City Distance Mag. Time & Date
Minimum magnitude displayed is 2.5.

Coastal Water Temperatures

Place Temperature

Stations

Nearby Weather Stations

Station Location Temp. Windchill Dew Point Humidity Wind Precip. Elev Updated Type